ACA3321 KLAX-KMEM
Flight info
| Callsign | ACA3321 |
|---|---|
| Flight time | N/A |
| Altitude | 35000 |
| Route | DOTSS2 CLEEE PKE HIDAT KA27O NABOB KA27Q KA27S IMMAS KA30Y KF30A IRW LITTR HOBRK4 |
| Aircraft | A21N/M-SDE2E3FGHIRWXY/LB1 |
Departure
| Time | 2026-05-04 02:26 |
|---|---|
| Airport | Los Angeles International Airport (KLAX) |
Arrival
| Time | N/A |
|---|---|
| Airport | Memphis International Airport (KMEM) |
| Time | Latitude | Longitude | Altitude | Speed | Heading |
|---|---|---|---|---|---|
| 2026-05-04 01:53 | 33.94000 | -118.40598 | 129 ft | 0 kts | 294° |
| 2026-05-04 02:12 | 33.94000 | -118.40599 | 129 ft | 0 kts | 294° |
| 2026-05-04 02:12 | 33.93994 | -118.40581 | 123 ft | 2 kts | 291° |
| 2026-05-04 02:13 | 33.93988 | -118.40562 | 123 ft | 2 kts | 281° |
| 2026-05-04 02:13 | 33.93991 | -118.40542 | 125 ft | 2 kts | 222° |
| 2026-05-04 02:13 | 33.93998 | -118.40535 | 123 ft | 0 kts | 189° |
| 2026-05-04 02:14 | 33.93976 | -118.40540 | 127 ft | 6 kts | 185° |
| 2026-05-04 02:14 | 33.93928 | -118.40537 | 126 ft | 7 kts | 174° |
| 2026-05-04 02:15 | 33.93873 | -118.40531 | 126 ft | 8 kts | 174° |
| 2026-05-04 02:15 | 33.93837 | -118.40508 | 124 ft | 6 kts | 125° |
| 2026-05-04 02:15 | 33.93832 | -118.40454 | 126 ft | 10 kts | 84° |
| 2026-05-04 02:15 | 33.93847 | -118.40314 | 129 ft | 19 kts | 82° |
| 2026-05-04 02:16 | 33.93863 | -118.40154 | 125 ft | 19 kts | 83° |
| 2026-05-04 02:16 | 33.93879 | -118.39992 | 129 ft | 20 kts | 83° |
| 2026-05-04 02:16 | 33.93896 | -118.39827 | 125 ft | 20 kts | 83° |
| 2026-05-04 02:16 | 33.93913 | -118.39667 | 126 ft | 20 kts | 82° |
| 2026-05-04 02:17 | 33.93930 | -118.39506 | 126 ft | 19 kts | 83° |
| 2026-05-04 02:17 | 33.93946 | -118.39346 | 127 ft | 19 kts | 83° |
| 2026-05-04 02:17 | 33.93962 | -118.39188 | 126 ft | 19 kts | 83° |
| 2026-05-04 02:17 | 33.93977 | -118.39031 | 129 ft | 19 kts | 83° |
| 2026-05-04 02:18 | 33.93994 | -118.38872 | 129 ft | 19 kts | 83° |
| 2026-05-04 02:18 | 33.94011 | -118.38713 | 127 ft | 19 kts | 83° |
| 2026-05-04 02:18 | 33.94027 | -118.38554 | 124 ft | 19 kts | 83° |
| 2026-05-04 02:18 | 33.94044 | -118.38397 | 127 ft | 19 kts | 83° |
| 2026-05-04 02:19 | 33.94058 | -118.38252 | 129 ft | 12 kts | 83° |
| 2026-05-04 02:19 | 33.94064 | -118.38199 | 129 ft | 6 kts | 83° |
| 2026-05-04 02:19 | 33.94066 | -118.38182 | 129 ft | 0 kts | 83° |
| 2026-05-04 02:20 | 33.94067 | -118.38167 | 129 ft | 5 kts | 83° |
| 2026-05-04 02:20 | 33.94073 | -118.38112 | 129 ft | 8 kts | 83° |
| 2026-05-04 02:20 | 33.94076 | -118.38072 | 129 ft | 0 kts | 83° |
| 2026-05-04 02:21 | 33.94077 | -118.38068 | 129 ft | 1 kts | 83° |
| 2026-05-04 02:21 | 33.94077 | -118.38044 | 129 ft | 4 kts | 99° |
| 2026-05-04 02:21 | 33.94074 | -118.38033 | 129 ft | 0 kts | 115° |
| 2026-05-04 02:22 | 33.94073 | -118.38032 | 129 ft | 2 kts | 118° |
| 2026-05-04 02:22 | 33.94053 | -118.38009 | 128 ft | 4 kts | 147° |
| 2026-05-04 02:22 | 33.94021 | -118.37997 | 126 ft | 5 kts | 178° |
| 2026-05-04 02:22 | 33.93994 | -118.38012 | 127 ft | 3 kts | 223° |
| 2026-05-04 02:23 | 33.93987 | -118.38029 | 128 ft | 3 kts | 248° |
| 2026-05-04 02:23 | 33.93981 | -118.38065 | 126 ft | 5 kts | 262° |
| 2026-05-04 02:23 | 33.93980 | -118.38072 | 129 ft | 0 kts | 262° |
| 2026-05-04 02:25 | 33.93969 | -118.38172 | 126 ft | 39 kts | 262° |
| 2026-05-04 02:25 | 33.93909 | -118.38744 | 126 ft | 100 kts | 263° |
| 2026-05-04 02:25 | 33.93788 | -118.39827 | 130 ft | 157 kts | 261° |
| 2026-05-04 02:25 | 33.93644 | -118.41223 | 382 ft | 175 kts | 264° |
| 2026-05-04 02:26 | 33.93513 | -118.42712 | 861 ft | 175 kts | 262° |
| 2026-05-04 02:26 | 33.93368 | -118.44101 | 1748 ft | 162 kts | 263° |
| 2026-05-04 02:26 | 33.93169 | -118.45501 | 2184 ft | 181 kts | 252° |
| 2026-05-04 02:26 | 33.92538 | -118.46905 | 2432 ft | 202 kts | 237° |
| 2026-05-04 02:27 | 33.91637 | -118.48319 | 2651 ft | 223 kts | 232° |
| 2026-05-04 02:27 | 33.90629 | -118.49763 | 3024 ft | 233 kts | 231° |
| 2026-05-04 02:27 | 33.89559 | -118.51266 | 3506 ft | 240 kts | 230° |
| 2026-05-04 02:27 | 33.88477 | -118.52790 | 4115 ft | 240 kts | 230° |
| 2026-05-04 02:28 | 33.87383 | -118.54288 | 4468 ft | 239 kts | 226° |
| 2026-05-04 02:28 | 33.86020 | -118.55482 | 4377 ft | 247 kts | 206° |
| 2026-05-04 02:28 | 33.84337 | -118.55924 | 4243 ft | 251 kts | 181° |
| 2026-05-04 02:28 | 33.82598 | -118.55647 | 4162 ft | 254 kts | 171° |
| 2026-05-04 02:29 | 33.80869 | -118.55170 | 4562 ft | 254 kts | 169° |
| 2026-05-04 02:29 | 33.79173 | -118.54682 | 5241 ft | 249 kts | 168° |
| 2026-05-04 02:29 | 33.77480 | -118.54203 | 5796 ft | 251 kts | 169° |
| 2026-05-04 02:29 | 33.75765 | -118.53728 | 6312 ft | 255 kts | 170° |
| 2026-05-04 02:30 | 33.74030 | -118.53254 | 6787 ft | 257 kts | 171° |
| 2026-05-04 02:30 | 33.72293 | -118.52783 | 7187 ft | 262 kts | 170° |
| 2026-05-04 02:30 | 33.70564 | -118.52025 | 7583 ft | 270 kts | 151° |
| 2026-05-04 02:30 | 33.69263 | -118.50392 | 8057 ft | 277 kts | 121° |
| 2026-05-04 02:31 | 33.68497 | -118.48267 | 8552 ft | 279 kts | 112° |
| 2026-05-04 02:31 | 33.67858 | -118.46058 | 8981 ft | 281 kts | 111° |
| 2026-05-04 02:31 | 33.67226 | -118.43822 | 9405 ft | 284 kts | 112° |
| 2026-05-04 02:31 | 33.66582 | -118.41574 | 9835 ft | 286 kts | 112° |
| 2026-05-04 02:32 | 33.65926 | -118.39318 | 10235 ft | 287 kts | 113° |
| 2026-05-04 02:32 | 33.65270 | -118.37084 | 10603 ft | 288 kts | 113° |
| 2026-05-04 02:32 | 33.64674 | -118.34772 | 10942 ft | 293 kts | 106° |
| 2026-05-04 02:32 | 33.64438 | -118.32295 | 11155 ft | 308 kts | 95° |
| 2026-05-04 02:33 | 33.64407 | -118.29627 | 11331 ft | 331 kts | 92° |
| 2026-05-04 02:33 | 33.64421 | -118.26777 | 11601 ft | 352 kts | 92° |
| 2026-05-04 02:33 | 33.64436 | -118.23764 | 11966 ft | 368 kts | 92° |
| 2026-05-04 02:33 | 33.64448 | -118.20663 | 12577 ft | 375 kts | 92° |
| 2026-05-04 02:34 | 33.64456 | -118.17512 | 13260 ft | 380 kts | 93° |
| 2026-05-04 02:34 | 33.64460 | -118.14321 | 13925 ft | 385 kts | 93° |
| 2026-05-04 02:34 | 33.64460 | -118.11079 | 14447 ft | 392 kts | 93° |
| 2026-05-04 02:34 | 33.64459 | -118.07818 | 14908 ft | 400 kts | 93° |
| 2026-05-04 02:35 | 33.64456 | -118.04407 | 15367 ft | 408 kts | 93° |
| 2026-05-04 02:35 | 33.64452 | -118.01015 | 15829 ft | 415 kts | 93° |
| 2026-05-04 02:35 | 33.64448 | -117.97524 | 16312 ft | 422 kts | 93° |
| 2026-05-04 02:35 | 33.64442 | -117.93976 | 16767 ft | 428 kts | 94° |
| 2026-05-04 02:36 | 33.64435 | -117.90370 | 17174 ft | 436 kts | 94° |
| 2026-05-04 02:36 | 33.64426 | -117.86705 | 17587 ft | 442 kts | 94° |
| 2026-05-04 02:36 | 33.64418 | -117.82992 | 18027 ft | 448 kts | 93° |
| 2026-05-04 02:36 | 33.64582 | -117.79231 | 18399 ft | 457 kts | 84° |
| 2026-05-04 02:37 | 33.65169 | -117.75457 | 18777 ft | 462 kts | 79° |
| 2026-05-04 02:37 | 33.65890 | -117.71687 | 19230 ft | 465 kts | 78° |
| 2026-05-04 02:37 | 33.66633 | -117.67899 | 19677 ft | 467 kts | 78° |
| 2026-05-04 02:37 | 33.67367 | -117.64138 | 20108 ft | 470 kts | 78° |
| 2026-05-04 02:38 | 33.68110 | -117.60301 | 20553 ft | 473 kts | 78° |
| 2026-05-04 02:38 | 33.68853 | -117.56442 | 21002 ft | 477 kts | 78° |
| 2026-05-04 02:38 | 33.69599 | -117.52552 | 21444 ft | 480 kts | 78° |
| 2026-05-04 02:38 | 33.70350 | -117.48632 | 21875 ft | 483 kts | 78° |
| 2026-05-04 02:39 | 33.71101 | -117.44693 | 22254 ft | 486 kts | 78° |
| 2026-05-04 02:39 | 33.71855 | -117.40726 | 22687 ft | 489 kts | 78° |
| 2026-05-04 02:39 | 33.72612 | -117.36738 | 23110 ft | 491 kts | 78° |
| 2026-05-04 02:39 | 33.73373 | -117.32724 | 23490 ft | 494 kts | 78° |
| 2026-05-04 02:40 | 33.74136 | -117.28688 | 23787 ft | 498 kts | 78° |
| 2026-05-04 02:40 | 33.74831 | -117.24604 | 24026 ft | 501 kts | 84° |
| 2026-05-04 02:40 | 33.75072 | -117.20430 | 24295 ft | 501 kts | 92° |
| 2026-05-04 02:40 | 33.75036 | -117.16291 | 24529 ft | 504 kts | 94° |
| 2026-05-04 02:41 | 33.74943 | -117.12079 | 24920 ft | 505 kts | 95° |
| 2026-05-04 02:41 | 33.74845 | -117.07844 | 25183 ft | 509 kts | 95° |
| 2026-05-04 02:41 | 33.74747 | -117.03582 | 25429 ft | 513 kts | 95° |
| 2026-05-04 02:41 | 33.74652 | -116.99285 | 25685 ft | 516 kts | 95° |
| 2026-05-04 02:42 | 33.74556 | -116.94967 | 25943 ft | 519 kts | 95° |
| 2026-05-04 02:42 | 33.74459 | -116.90614 | 26204 ft | 522 kts | 95° |
| 2026-05-04 02:42 | 33.74361 | -116.86244 | 26389 ft | 526 kts | 94° |
| 2026-05-04 02:42 | 33.74262 | -116.81858 | 26783 ft | 524 kts | 94° |
| 2026-05-04 02:43 | 33.74163 | -116.77531 | 27046 ft | 527 kts | 94° |
| 2026-05-04 02:43 | 33.74059 | -116.73114 | 27228 ft | 531 kts | 94° |
| 2026-05-04 02:43 | 33.73954 | -116.68667 | 27438 ft | 534 kts | 94° |
| 2026-05-04 02:43 | 33.73847 | -116.64199 | 27658 ft | 537 kts | 94° |
| 2026-05-04 02:44 | 33.73737 | -116.59711 | 27691 ft | 538 kts | 95° |
| 2026-05-04 02:44 | 33.73625 | -116.55208 | 27796 ft | 540 kts | 95° |
| 2026-05-04 02:44 | 33.73510 | -116.50680 | 27957 ft | 544 kts | 95° |
| 2026-05-04 02:44 | 33.73394 | -116.46128 | 28118 ft | 547 kts | 95° |
| 2026-05-04 02:45 | 33.73276 | -116.41551 | 28337 ft | 550 kts | 95° |
| 2026-05-04 02:45 | 33.73156 | -116.36949 | 28529 ft | 552 kts | 95° |
| 2026-05-04 02:45 | 33.73034 | -116.32338 | 28817 ft | 552 kts | 95° |
| 2026-05-04 02:45 | 33.72910 | -116.27729 | 29078 ft | 553 kts | 95° |
| 2026-05-04 02:46 | 33.72785 | -116.23164 | 29272 ft | 555 kts | 95° |
| 2026-05-04 02:46 | 33.72655 | -116.18506 | 29417 ft | 559 kts | 95° |
| 2026-05-04 02:46 | 33.72524 | -116.13841 | 29682 ft | 560 kts | 95° |
| 2026-05-04 02:46 | 33.72528 | -116.09160 | 29937 ft | 563 kts | 87° |
| 2026-05-04 02:47 | 33.73179 | -116.04518 | 30145 ft | 564 kts | 74° |
| 2026-05-04 02:47 | 33.74243 | -115.99988 | 30380 ft | 564 kts | 72° |
| 2026-05-04 02:47 | 33.75446 | -115.95492 | 30594 ft | 565 kts | 70° |
| 2026-05-04 02:47 | 33.76717 | -115.91031 | 30896 ft | 563 kts | 69° |
| 2026-05-04 02:48 | 33.78001 | -115.86597 | 31195 ft | 562 kts | 69° |
| 2026-05-04 02:48 | 33.79282 | -115.82154 | 31370 ft | 563 kts | 69° |
| 2026-05-04 02:48 | 33.80536 | -115.77746 | 31537 ft | 566 kts | 70° |
| 2026-05-04 02:48 | 33.81793 | -115.73265 | 31741 ft | 566 kts | 70° |
| 2026-05-04 02:49 | 33.83041 | -115.68766 | 31953 ft | 567 kts | 70° |
| 2026-05-04 02:49 | 33.84281 | -115.64262 | 32164 ft | 568 kts | 70° |
| 2026-05-04 02:49 | 33.85516 | -115.59752 | 32429 ft | 567 kts | 70° |
| 2026-05-04 02:49 | 33.86748 | -115.55246 | 32627 ft | 568 kts | 70° |
| 2026-05-04 02:50 | 33.87983 | -115.50726 | 32787 ft | 570 kts | 70° |
| 2026-05-04 02:50 | 33.89221 | -115.46190 | 32893 ft | 572 kts | 70° |
| 2026-05-04 02:50 | 33.90463 | -115.41630 | 33064 ft | 573 kts | 70° |
| 2026-05-04 02:50 | 33.91701 | -115.37082 | 33320 ft | 572 kts | 70° |
| 2026-05-04 02:51 | 33.92921 | -115.32592 | 33512 ft | 572 kts | 70° |
| 2026-05-04 02:51 | 33.94157 | -115.28032 | 33733 ft | 572 kts | 70° |
| 2026-05-04 02:51 | 33.95391 | -115.23481 | 33834 ft | 574 kts | 70° |
| 2026-05-04 02:51 | 33.96630 | -115.18903 | 33958 ft | 575 kts | 70° |
| 2026-05-04 02:52 | 33.97865 | -115.14331 | 34149 ft | 574 kts | 70° |
| 2026-05-04 02:52 | 33.99097 | -115.09762 | 34338 ft | 573 kts | 70° |
| 2026-05-04 02:52 | 34.00325 | -115.05200 | 34511 ft | 571 kts | 70° |
| 2026-05-04 02:52 | 34.01546 | -115.00650 | 34618 ft | 572 kts | 70° |
| 2026-05-04 02:53 | 34.03993 | -114.91522 | 34714 ft | 572 kts | 70° |
| 2026-05-04 02:53 | 34.06417 | -114.82452 | 34720 ft | 571 kts | 70° |
| 2026-05-04 02:54 | 34.08846 | -114.73329 | 34708 ft | 571 kts | 70° |
| 2026-05-04 02:54 | 34.11295 | -114.64223 | 34709 ft | 571 kts | 69° |
| 2026-05-04 02:55 | 34.15118 | -114.50614 | 34700 ft | 571 kts | 69° |
| 2026-05-04 02:56 | 34.17653 | -114.41600 | 34697 ft | 571 kts | 69° |
| 2026-05-04 02:56 | 34.20184 | -114.32518 | 34701 ft | 570 kts | 68° |
| 2026-05-04 02:57 | 34.22702 | -114.23440 | 34703 ft | 570 kts | 68° |
| 2026-05-04 02:57 | 34.25213 | -114.14354 | 34700 ft | 570 kts | 69° |
| 2026-05-04 02:58 | 34.27720 | -114.05262 | 34714 ft | 570 kts | 68° |
| 2026-05-04 02:58 | 34.30210 | -113.96227 | 34719 ft | 570 kts | 68° |
| 2026-05-04 02:59 | 34.32693 | -113.87135 | 34742 ft | 569 kts | 68° |
| 2026-05-04 02:59 | 34.35164 | -113.78057 | 34725 ft | 567 kts | 68° |
| 2026-05-04 03:00 | 34.37626 | -113.69000 | 34736 ft | 566 kts | 68° |
| 2026-05-04 03:00 | 34.40077 | -113.59956 | 34725 ft | 565 kts | 69° |
| 2026-05-04 03:01 | 34.42511 | -113.50889 | 34736 ft | 567 kts | 69° |
| 2026-05-04 03:01 | 34.44940 | -113.41897 | 34763 ft | 565 kts | 68° |
| 2026-05-04 03:02 | 34.47371 | -113.32859 | 34760 ft | 563 kts | 68° |
| 2026-05-04 03:02 | 34.49789 | -113.23835 | 34758 ft | 563 kts | 68° |
| 2026-05-04 03:03 | 34.52200 | -113.14804 | 34775 ft | 563 kts | 68° |
| 2026-05-04 03:03 | 34.54599 | -113.05766 | 34788 ft | 562 kts | 68° |
| 2026-05-04 03:04 | 34.56287 | -112.96588 | 34802 ft | 565 kts | 89° |
| 2026-05-04 03:04 | 34.56076 | -112.87068 | 34801 ft | 566 kts | 95° |
| 2026-05-04 03:05 | 34.55455 | -112.77564 | 34826 ft | 565 kts | 96° |
| 2026-05-04 03:05 | 34.54757 | -112.68085 | 34825 ft | 564 kts | 96° |
| 2026-05-04 03:06 | 34.54091 | -112.58658 | 34830 ft | 565 kts | 96° |
| 2026-05-04 03:06 | 34.53443 | -112.49162 | 34988 ft | 566 kts | 96° |
| 2026-05-04 03:07 | 34.52795 | -112.39658 | 34988 ft | 565 kts | 96° |
| 2026-05-04 03:07 | 34.52140 | -112.30174 | 34967 ft | 564 kts | 96° |
| 2026-05-04 03:08 | 34.51474 | -112.20689 | 34930 ft | 564 kts | 96° |
| 2026-05-04 03:08 | 34.50810 | -112.11279 | 34889 ft | 564 kts | 96° |
| 2026-05-04 03:09 | 34.50094 | -112.01816 | 34836 ft | 562 kts | 102° |
| 2026-05-04 03:09 | 34.48208 | -111.92692 | 34849 ft | 557 kts | 110° |
| 2026-05-04 03:10 | 34.46002 | -111.83692 | 34840 ft | 557 kts | 111° |
| 2026-05-04 03:10 | 34.43726 | -111.74744 | 34858 ft | 560 kts | 111° |
| 2026-05-04 03:11 | 34.41449 | -111.65737 | 34852 ft | 559 kts | 111° |
| 2026-05-04 03:11 | 34.39182 | -111.56732 | 34851 ft | 559 kts | 111° |
| 2026-05-04 03:11 | 34.38045 | -111.52224 | 34970 ft | 560 kts | 111° |
| 2026-05-04 03:12 | 34.36908 | -111.47722 | 34994 ft | 559 kts | 111° |
| 2026-05-04 03:12 | 34.34629 | -111.38723 | 35038 ft | 559 kts | 111° |
| 2026-05-04 03:12 | 34.33658 | -111.34219 | 35041 ft | 562 kts | 100° |
| 2026-05-04 03:13 | 34.33374 | -111.29507 | 35017 ft | 562 kts | 85° |
| 2026-05-04 03:13 | 34.34220 | -111.20122 | 35007 ft | 562 kts | 78° |
| 2026-05-04 03:14 | 34.35493 | -111.10785 | 34957 ft | 562 kts | 77° |
| 2026-05-04 03:14 | 34.36823 | -111.01471 | 34912 ft | 561 kts | 77° |
| 2026-05-04 03:15 | 34.38104 | -110.92152 | 34869 ft | 561 kts | 77° |
| 2026-05-04 03:15 | 34.39339 | -110.82893 | 34877 ft | 561 kts | 77° |
| 2026-05-04 03:16 | 34.40566 | -110.73561 | 34878 ft | 560 kts | 77° |
| 2026-05-04 03:16 | 34.41784 | -110.64252 | 34873 ft | 560 kts | 77° |
| 2026-05-04 03:17 | 34.42998 | -110.54936 | 34874 ft | 560 kts | 77° |
| 2026-05-04 03:17 | 34.44196 | -110.45685 | 34952 ft | 559 kts | 77° |
| 2026-05-04 03:18 | 34.45391 | -110.36399 | 34867 ft | 557 kts | 77° |
| 2026-05-04 03:18 | 34.46578 | -110.27127 | 34856 ft | 557 kts | 77° |
| 2026-05-04 03:19 | 34.47757 | -110.17852 | 34857 ft | 557 kts | 78° |
| 2026-05-04 03:19 | 34.48921 | -110.08645 | 34856 ft | 556 kts | 78° |
| 2026-05-04 03:20 | 34.49897 | -109.99360 | 34851 ft | 557 kts | 88° |
| 2026-05-04 03:20 | 34.50067 | -109.89967 | 34854 ft | 558 kts | 87° |
| 2026-05-04 03:21 | 34.50164 | -109.80571 | 34854 ft | 558 kts | 88° |
| 2026-05-04 03:21 | 34.50216 | -109.71187 | 34853 ft | 555 kts | 88° |
| 2026-05-04 03:22 | 34.50258 | -109.61916 | 34974 ft | 554 kts | 88° |
| 2026-05-04 03:22 | 34.50299 | -109.52585 | 35031 ft | 554 kts | 88° |
| 2026-05-04 03:23 | 34.50335 | -109.43252 | 35067 ft | 553 kts | 88° |
| 2026-05-04 03:23 | 34.50364 | -109.33933 | 35054 ft | 553 kts | 88° |
| 2026-05-04 03:24 | 34.50387 | -109.24676 | 35039 ft | 553 kts | 88° |
| 2026-05-04 03:24 | 34.50402 | -109.15358 | 34989 ft | 553 kts | 88° |
| 2026-05-04 03:25 | 34.50409 | -109.06050 | 34942 ft | 551 kts | 88° |
| 2026-05-04 03:25 | 34.50410 | -108.96765 | 34902 ft | 550 kts | 88° |
| 2026-05-04 03:26 | 34.50405 | -108.87555 | 34885 ft | 550 kts | 88° |
| 2026-05-04 03:26 | 34.50392 | -108.78277 | 34895 ft | 550 kts | 88° |
| 2026-05-04 03:27 | 34.50372 | -108.69032 | 34899 ft | 547 kts | 88° |
| 2026-05-04 03:27 | 34.50345 | -108.59831 | 34903 ft | 545 kts | 88° |
| 2026-05-04 03:28 | 34.50312 | -108.50700 | 34906 ft | 545 kts | 88° |
| 2026-05-04 03:28 | 34.50272 | -108.41503 | 34920 ft | 545 kts | 88° |